sensor_id;sensor_type;location;lat;lon;timestamp;temperature;humidity
12622;DHT22;6376;48.182;-1.644;2022-09-01T07:50:50;20.90;79.00
12622;DHT22;6376;48.182;-1.644;2022-09-01T07:53:20;20.90;79.00
12622;DHT22;6376;48.182;-1.644;2022-09-01T07:55:48;20.90;79.00
12622;DHT22;6376;48.182;-1.644;2022-09-01T07:58:17;20.90;78.90
12622;DHT22;6376;48.182;-1.644;2022-09-01T08:00:44;20.90;79.00
12622;DHT22;6376;48.182;-1.644;2022-09-01T08:03:11;21.00;78.90
12622;DHT22;6376;48.182;-1.644;2022-09-01T08:05:37;21.00;79.00
12622;DHT22;6376;48.182;-1.644;2022-09-01T08:08:03;21.00;79.20
12622;DHT22;6376;48.182;-1.644;2022-09-01T08:10:29;21.00;79.30
12622;DHT22;6376;48.182;-1.644;2022-09-01T08:12:55;21.00;79.10
12622;DHT22;6376;48.182;-1.644;2022-09-01T08:15:21;21.00;79.10
12622;DHT22;6376;48.182;-1.644;2022-09-01T08:17:47;21.00;78.80
12622;DHT22;6376;48.182;-1.644;2022-09-01T08:20:13;21.00;78.90
12622;DHT22;6376;48.182;-1.644;2022-09-01T08:22:39;21.00;79.00
12622;DHT22;6376;48.182;-1.644;2022-09-01T08:25:08;21.00;78.90
12622;DHT22;6376;48.182;-1.644;2022-09-01T08:27:36;21.00;78.80
12622;DHT22;6376;48.182;-1.644;2022-09-01T08:30:09;21.00;78.90
12622;DHT22;6376;48.182;-1.644;2022-09-01T08:32:36;21.00;78.90
12622;DHT22;6376;48.182;-1.644;2022-09-01T08:35:03;21.00;78.90
12622;DHT22;6376;48.182;-1.644;2022-09-01T08:37:32;21.00;78.90
12622;DHT22;6376;48.182;-1.644;2022-09-01T08:39:57;21.00;78.90
12622;DHT22;6376;48.182;-1.644;2022-09-01T08:47:53;21.00;78.90
12622;DHT22;6376;48.182;-1.644;2022-09-01T08:50:20;21.00;79.00
12622;DHT22;6376;48.182;-1.644;2022-09-01T08:52:54;21.00;79.00
12622;DHT22;6376;48.182;-1.644;2022-09-01T08:55:30;21.00;79.00
12622;DHT22;6376;48.182;-1.644;2022-09-01T08:58:00;21.00;79.70
12622;DHT22;6376;48.182;-1.644;2022-09-01T09:00:28;21.00;79.00
12622;DHT22;6376;48.182;-1.644;2022-09-01T09:11:57;21.00;79.20
12622;DHT22;6376;48.182;-1.644;2022-09-01T09:17:14;21.00;79.30
12622;DHT22;6376;48.182;-1.644;2022-09-01T09:19:43;21.00;79.30
12622;DHT22;6376;48.182;-1.644;2022-09-01T09:22:14;21.00;79.30
12622;DHT22;6376;48.182;-1.644;2022-09-01T09:27:31;21.00;79.30
12622;DHT22;6376;48.182;-1.644;2022-09-01T09:30:02;21.00;79.20
12622;DHT22;6376;48.182;-1.644;2022-09-01T09:35:30;21.00;79.40
12622;DHT22;6376;48.182;-1.644;2022-09-01T09:38:20;21.00;79.70
12622;DHT22;6376;48.182;-1.644;2022-09-01T09:43:29;21.10;79.10
12622;DHT22;6376;48.182;-1.644;2022-09-01T09:46:22;21.20;78.70
12622;DHT22;6376;48.182;-1.644;2022-09-01T09:51:30;21.30;78.20
12622;DHT22;6376;48.182;-1.644;2022-09-01T09:56:42;21.30;78.00
12622;DHT22;6376;48.182;-1.644;2022-09-01T09:59:29;21.40;78.00
12622;DHT22;6376;48.182;-1.644;2022-09-01T10:01:57;21.40;78.20
12622;DHT22;6376;48.182;-1.644;2022-09-01T10:04:35;21.40;78.00
12622;DHT22;6376;48.182;-1.644;2022-09-01T10:09:46;21.40;78.00
12622;DHT22;6376;48.182;-1.644;2022-09-01T10:12:14;21.50;77.90
12622;DHT22;6376;48.182;-1.644;2022-09-01T10:15:05;21.60;78.30
12622;DHT22;6376;48.182;-1.644;2022-09-01T10:17:34;21.60;78.60
12622;DHT22;6376;48.182;-1.644;2022-09-01T10:20:22;21.50;78.60
12622;DHT22;6376;48.182;-1.644;2022-09-01T10:22:48;21.60;78.90
12622;DHT22;6376;48.182;-1.644;2022-09-01T10:25:25;21.60;79.20
12622;DHT22;6376;48.182;-1.644;2022-09-01T10:27:56;21.60;78.30
12622;DHT22;6376;48.182;-1.644;2022-09-01T10:30:23;21.80;77.30
12622;DHT22;6376;48.182;-1.644;2022-09-01T10:35:31;22.00;75.70
12622;DHT22;6376;48.182;-1.644;2022-09-01T10:37:59;21.90;75.10
12622;DHT22;6376;48.182;-1.644;2022-09-01T10:43:45;21.90;76.00
12622;DHT22;6376;48.182;-1.644;2022-09-01T10:45:46;21.90;76.10
12622;DHT22;6376;48.182;-1.644;2022-09-01T10:58:47;21.90;76.70
12622;DHT22;6376;48.182;-1.644;2022-09-01T11:01:14;21.90;76.10
12622;DHT22;6376;48.182;-1.644;2022-09-01T11:04:06;21.90;76.20
12622;DHT22;6376;48.182;-1.644;2022-09-01T11:17:27;22.10;74.60
12622;DHT22;6376;48.182;-1.644;2022-09-01T11:20:21;22.10;75.10
12622;DHT22;6376;48.182;-1.644;2022-09-01T11:25:52;22.00;74.50
12622;DHT22;6376;48.182;-1.644;2022-09-01T11:41:54;22.00;74.40
12622;DHT22;6376;48.182;-1.644;2022-09-01T11:44:31;22.00;74.30
12622;DHT22;6376;48.182;-1.644;2022-09-01T11:47:04;22.00;74.20
12622;DHT22;6376;48.182;-1.644;2022-09-01T11:49:36;22.10;74.40
12622;DHT22;6376;48.182;-1.644;2022-09-01T11:52:04;22.10;74.70
12622;DHT22;6376;48.182;-1.644;2022-09-01T11:54:40;22.10;74.30
12622;DHT22;6376;48.182;-1.644;2022-09-01T12:00:08;22.10;74.10
12622;DHT22;6376;48.182;-1.644;2022-09-01T12:02:40;22.10;74.40
12622;DHT22;6376;48.182;-1.644;2022-09-01T12:05:24;22.10;74.10
12622;DHT22;6376;48.182;-1.644;2022-09-01T12:07:50;22.10;74.40
12622;DHT22;6376;48.182;-1.644;2022-09-01T12:10:25;22.10;74.30
12622;DHT22;6376;48.182;-1.644;2022-09-01T12:13:20;22.10;74.10
12622;DHT22;6376;48.182;-1.644;2022-09-01T12:16:19;22.10;74.00
12622;DHT22;6376;48.182;-1.644;2022-09-01T12:18:48;22.10;74.00
12622;DHT22;6376;48.182;-1.644;2022-09-01T12:21:22;22.10;73.70
12622;DHT22;6376;48.182;-1.644;2022-09-01T12:23:48;22.10;74.00
12622;DHT22;6376;48.182;-1.644;2022-09-01T12:26:18;22.20;73.70
12622;DHT22;6376;48.182;-1.644;2022-09-01T12:28:45;22.20;73.90
12622;DHT22;6376;48.182;-1.644;2022-09-01T12:31:17;22.10;73.60
12622;DHT22;6376;48.182;-1.644;2022-09-01T12:33:44;22.20;73.70
12622;DHT22;6376;48.182;-1.644;2022-09-01T12:38:53;22.20;73.70
12622;DHT22;6376;48.182;-1.644;2022-09-01T12:41:37;22.20;73.40
12622;DHT22;6376;48.182;-1.644;2022-09-01T12:44:29;22.20;73.60
12622;DHT22;6376;48.182;-1.644;2022-09-01T12:46:56;22.20;73.60
12622;DHT22;6376;48.182;-1.644;2022-09-01T12:49:25;22.20;73.60
12622;DHT22;6376;48.182;-1.644;2022-09-01T12:54:45;22.20;73.50
12622;DHT22;6376;48.182;-1.644;2022-09-01T12:57:24;22.20;73.40
12622;DHT22;6376;48.182;-1.644;2022-09-01T13:02:38;22.20;73.40
12622;DHT22;6376;48.182;-1.644;2022-09-01T13:07:59;22.20;73.30
12622;DHT22;6376;48.182;-1.644;2022-09-01T13:10:31;22.20;73.50
12622;DHT22;6376;48.182;-1.644;2022-09-01T13:12:58;22.20;73.30
12622;DHT22;6376;48.182;-1.644;2022-09-01T13:15:24;22.20;73.20
12622;DHT22;6376;48.182;-1.644;2022-09-01T13:17:51;22.20;73.60
12622;DHT22;6376;48.182;-1.644;2022-09-01T13:20:17;22.20;73.30
12622;DHT22;6376;48.182;-1.644;2022-09-01T13:22:43;22.20;73.30
12622;DHT22;6376;48.182;-1.644;2022-09-01T13:25:14;22.20;73.30
12622;DHT22;6376;48.182;-1.644;2022-09-01T13:27:42;22.20;73.30
12622;DHT22;6376;48.182;-1.644;2022-09-01T13:30:13;22.20;73.30
12622;DHT22;6376;48.182;-1.644;2022-09-01T13:32:40;22.20;73.30
12622;DHT22;6376;48.182;-1.644;2022-09-01T13:35:06;22.20;73.20
12622;DHT22;6376;48.182;-1.644;2022-09-01T13:37:32;22.30;73.20
12622;DHT22;6376;48.182;-1.644;2022-09-01T13:39:58;22.30;73.30
12622;DHT22;6376;48.182;-1.644;2022-09-01T13:42:24;22.30;73.20
12622;DHT22;6376;48.182;-1.644;2022-09-01T13:44:49;22.30;73.20
12622;DHT22;6376;48.182;-1.644;2022-09-01T13:47:15;22.30;73.20
12622;DHT22;6376;48.182;-1.644;2022-09-01T13:49:41;22.30;73.30
12622;DHT22;6376;48.182;-1.644;2022-09-01T13:52:06;22.20;73.20
12622;DHT22;6376;48.182;-1.644;2022-09-01T13:54:32;22.20;73.20
12622;DHT22;6376;48.182;-1.644;2022-09-01T13:56:58;22.20;73.30
12622;DHT22;6376;48.182;-1.644;2022-09-01T13:59:23;22.20;73.30
12622;DHT22;6376;48.182;-1.644;2022-09-01T14:01:49;22.20;73.30
12622;DHT22;6376;48.182;-1.644;2022-09-01T14:04:15;22.20;73.30
12622;DHT22;6376;48.182;-1.644;2022-09-01T14:06:43;22.20;73.40
12622;DHT22;6376;48.182;-1.644;2022-09-01T14:09:10;22.20;73.30
12622;DHT22;6376;48.182;-1.644;2022-09-01T14:11:36;22.20;73.40
12622;DHT22;6376;48.182;-1.644;2022-09-01T14:14:02;22.20;73.30
12622;DHT22;6376;48.182;-1.644;2022-09-01T14:16:28;22.20;73.20
12622;DHT22;6376;48.182;-1.644;2022-09-01T14:18:53;22.20;73.20
12622;DHT22;6376;48.182;-1.644;2022-09-01T14:21:19;22.30;73.20
12622;DHT22;6376;48.182;-1.644;2022-09-01T14:23:45;22.30;73.10
12622;DHT22;6376;48.182;-1.644;2022-09-01T14:26:13;22.20;73.10
12622;DHT22;6376;48.182;-1.644;2022-09-01T14:28:40;22.30;73.20
12622;DHT22;6376;48.182;-1.644;2022-09-01T14:31:11;22.20;73.10
12622;DHT22;6376;48.182;-1.644;2022-09-01T14:33:38;22.30;73.20
12622;DHT22;6376;48.182;-1.644;2022-09-01T14:36:05;22.20;73.10
12622;DHT22;6376;48.182;-1.644;2022-09-01T14:38:31;22.30;73.10
12622;DHT22;6376;48.182;-1.644;2022-09-01T14:40:57;22.30;73.10
12622;DHT22;6376;48.182;-1.644;2022-09-01T14:43:23;22.20;73.10
12622;DHT22;6376;48.182;-1.644;2022-09-01T14:46:04;22.20;73.10
12622;DHT22;6376;48.182;-1.644;2022-09-01T14:48:35;22.30;73.20
12622;DHT22;6376;48.182;-1.644;2022-09-01T14:51:01;22.30;73.30
12622;DHT22;6376;48.182;-1.644;2022-09-01T14:53:28;22.20;73.20
12622;DHT22;6376;48.182;-1.644;2022-09-01T14:55:55;22.20;73.20
12622;DHT22;6376;48.182;-1.644;2022-09-01T14:58:21;22.20;73.20
12622;DHT22;6376;48.182;-1.644;2022-09-01T15:00:47;22.30;73.20
12622;DHT22;6376;48.182;-1.644;2022-09-01T15:03:12;22.20;73.20
12622;DHT22;6376;48.182;-1.644;2022-09-01T15:05:38;22.30;73.30
12622;DHT22;6376;48.182;-1.644;2022-09-01T15:08:04;22.30;73.30
12622;DHT22;6376;48.182;-1.644;2022-09-01T15:10:30;22.30;73.30
12622;DHT22;6376;48.182;-1.644;2022-09-01T15:12:58;22.30;73.30
12622;DHT22;6376;48.182;-1.644;2022-09-01T15:15:25;22.20;73.30
12622;DHT22;6376;48.182;-1.644;2022-09-01T15:17:52;22.20;73.30
12622;DHT22;6376;48.182;-1.644;2022-09-01T15:20:17;22.20;73.30
12622;DHT22;6376;48.182;-1.644;2022-09-01T15:23:03;22.20;74.00
12622;DHT22;6376;48.182;-1.644;2022-09-01T15:25:28;22.20;73.30
12622;DHT22;6376;48.182;-1.644;2022-09-01T15:27:54;22.20;73.30
12622;DHT22;6376;48.182;-1.644;2022-09-01T15:30:20;22.20;73.30
12622;DHT22;6376;48.182;-1.644;2022-09-01T15:32:50;22.20;73.40
12622;DHT22;6376;48.182;-1.644;2022-09-01T15:35:16;22.20;73.40
12622;DHT22;6376;48.182;-1.644;2022-09-01T15:37:42;22.20;73.40
12622;DHT22;6376;48.182;-1.644;2022-09-01T15:40:10;22.20;73.40
12622;DHT22;6376;48.182;-1.644;2022-09-01T15:42:36;22.20;73.40
12622;DHT22;6376;48.182;-1.644;2022-09-01T15:45:05;22.20;73.30
12622;DHT22;6376;48.182;-1.644;2022-09-01T15:47:31;22.20;73.30
12622;DHT22;6376;48.182;-1.644;2022-09-01T15:49:57;22.20;73.40
12622;DHT22;6376;48.182;-1.644;2022-09-01T15:52:22;22.20;73.40
12622;DHT22;6376;48.182;-1.644;2022-09-01T15:54:49;22.20;73.40
12622;DHT22;6376;48.182;-1.644;2022-09-01T15:57:14;22.20;73.40
12622;DHT22;6376;48.182;-1.644;2022-09-01T15:59:40;22.20;73.50
12622;DHT22;6376;48.182;-1.644;2022-09-01T16:02:07;22.20;73.40
12622;DHT22;6376;48.182;-1.644;2022-09-01T16:04:33;22.20;73.30
12622;DHT22;6376;48.182;-1.644;2022-09-01T16:06:59;22.20;73.30
12622;DHT22;6376;48.182;-1.644;2022-09-01T16:09:25;22.20;73.40
12622;DHT22;6376;48.182;-1.644;2022-09-01T16:11:52;22.20;73.30
12622;DHT22;6376;48.182;-1.644;2022-09-01T16:14:18;22.20;73.40
12622;DHT22;6376;48.182;-1.644;2022-09-01T16:17:01;22.20;73.30
12622;DHT22;6376;48.182;-1.644;2022-09-01T16:19:32;22.20;73.30
12622;DHT22;6376;48.182;-1.644;2022-09-01T16:24:50;22.20;73.30
12622;DHT22;6376;48.182;-1.644;2022-09-01T16:27:20;22.20;73.30
12622;DHT22;6376;48.182;-1.644;2022-09-01T16:29:47;22.20;73.30
12622;DHT22;6376;48.182;-1.644;2022-09-01T16:32:14;22.20;73.30
12622;DHT22;6376;48.182;-1.644;2022-09-01T16:34:41;22.30;73.30
12622;DHT22;6376;48.182;-1.644;2022-09-01T16:37:44;22.30;73.30
12622;DHT22;6376;48.182;-1.644;2022-09-01T16:40:34;22.20;73.30
12622;DHT22;6376;48.182;-1.644;2022-09-01T16:43:29;22.30;73.30
12622;DHT22;6376;48.182;-1.644;2022-09-01T16:51:42;22.30;73.30
12622;DHT22;6376;48.182;-1.644;2022-09-01T16:54:27;22.30;73.30
12622;DHT22;6376;48.182;-1.644;2022-09-01T17:05:25;22.30;73.40
12622;DHT22;6376;48.182;-1.644;2022-09-01T17:08:17;22.20;73.30
12622;DHT22;6376;48.182;-1.644;2022-09-01T17:10:50;22.20;73.30
12622;DHT22;6376;48.182;-1.644;2022-09-01T17:16:02;22.20;73.40
12622;DHT22;6376;48.182;-1.644;2022-09-01T17:18:43;22.20;73.50
12622;DHT22;6376;48.182;-1.644;2022-09-01T17:26:27;22.20;73.60
12622;DHT22;6376;48.182;-1.644;2022-09-01T17:28:56;22.20;73.70
12622;DHT22;6376;48.182;-1.644;2022-09-01T17:31:28;22.20;73.60
12622;DHT22;6376;48.182;-1.644;2022-09-01T17:39:36;22.20;74.00
12622;DHT22;6376;48.182;-1.644;2022-09-01T17:42:32;22.20;74.90
12622;DHT22;6376;48.182;-1.644;2022-09-01T17:48:10;22.20;74.00
12622;DHT22;6376;48.182;-1.644;2022-09-01T17:55:57;22.00;74.50
12622;DHT22;6376;48.182;-1.644;2022-09-01T18:09:15;21.70;75.60
12622;DHT22;6376;48.182;-1.644;2022-09-01T18:12:03;21.70;75.70
12622;DHT22;6376;48.182;-1.644;2022-09-01T18:14:48;21.70;76.00
12622;DHT22;6376;48.182;-1.644;2022-09-01T18:17:30;21.70;76.30
12622;DHT22;6376;48.182;-1.644;2022-09-01T18:20:08;21.70;76.00
12622;DHT22;6376;48.182;-1.644;2022-09-01T18:22:46;21.70;76.10
12622;DHT22;6376;48.182;-1.644;2022-09-01T18:25:18;21.70;76.50
12622;DHT22;6376;48.182;-1.644;2022-09-01T18:27:44;21.70;76.60
12622;DHT22;6376;48.182;-1.644;2022-09-01T18:30:18;21.70;76.70
12622;DHT22;6376;48.182;-1.644;2022-09-01T18:35:45;21.60;77.20
12622;DHT22;6376;48.182;-1.644;2022-09-01T18:43:58;21.60;78.00
12622;DHT22;6376;48.182;-1.644;2022-09-01T18:46:44;21.60;78.00
12622;DHT22;6376;48.182;-1.644;2022-09-01T18:55:31;21.60;78.20
12622;DHT22;6376;48.182;-1.644;2022-09-01T18:58:03;21.60;78.00
12622;DHT22;6376;48.182;-1.644;2022-09-01T19:00:38;21.60;78.90
12622;DHT22;6376;48.182;-1.644;2022-09-01T19:03:28;21.50;77.90
12622;DHT22;6376;48.182;-1.644;2022-09-01T19:06:32;21.50;78.20
12622;DHT22;6376;48.182;-1.644;2022-09-01T19:19:45;21.50;78.50
12622;DHT22;6376;48.182;-1.644;2022-09-01T19:22:18;21.50;78.50
12622;DHT22;6376;48.182;-1.644;2022-09-01T19:24:55;21.50;78.60
12622;DHT22;6376;48.182;-1.644;2022-09-01T19:27:42;21.50;78.70
12622;DHT22;6376;48.182;-1.644;2022-09-01T19:30:14;21.50;78.80
12622;DHT22;6376;48.182;-1.644;2022-09-01T19:32:40;21.50;78.80
12622;DHT22;6376;48.182;-1.644;2022-09-01T19:35:16;21.50;78.80
12622;DHT22;6376;48.182;-1.644;2022-09-01T19:37:48;21.50;78.80
12622;DHT22;6376;48.182;-1.644;2022-09-01T19:40:17;21.50;78.80
12622;DHT22;6376;48.182;-1.644;2022-09-01T19:42:54;21.50;78.80
12622;DHT22;6376;48.182;-1.644;2022-09-01T19:45:28;21.40;78.80
12622;DHT22;6376;48.182;-1.644;2022-09-01T19:48:01;21.40;78.80
12622;DHT22;6376;48.182;-1.644;2022-09-01T19:50:39;21.50;79.00
12622;DHT22;6376;48.182;-1.644;2022-09-01T19:53:32;21.40;79.00
12622;DHT22;6376;48.182;-1.644;2022-09-01T19:58:56;21.40;79.00
12622;DHT22;6376;48.182;-1.644;2022-09-01T20:02:01;21.40;79.00
12622;DHT22;6376;48.182;-1.644;2022-09-01T20:07:41;21.40;79.10
12622;DHT22;6376;48.182;-1.644;2022-09-01T20:10:36;21.40;79.10
12622;DHT22;6376;48.182;-1.644;2022-09-01T20:18:48;21.40;80.00
12622;DHT22;6376;48.182;-1.644;2022-09-01T20:21:14;21.40;79.40
12622;DHT22;6376;48.182;-1.644;2022-09-01T20:23:59;21.40;79.40
12622;DHT22;6376;48.182;-1.644;2022-09-01T20:26:36;21.40;79.40
12622;DHT22;6376;48.182;-1.644;2022-09-01T20:31:40;21.40;79.40
12622;DHT22;6376;48.182;-1.644;2022-09-01T20:34:08;21.40;79.50
12622;DHT22;6376;48.182;-1.644;2022-09-01T20:36:44;21.40;79.50
12622;DHT22;6376;48.182;-1.644;2022-09-01T20:39:17;21.40;79.40
12622;DHT22;6376;48.182;-1.644;2022-09-01T20:42:32;21.40;79.50
12622;DHT22;6376;48.182;-1.644;2022-09-01T20:45:22;21.40;79.30
12622;DHT22;6376;48.182;-1.644;2022-09-01T20:55:47;21.30;79.10
12622;DHT22;6376;48.182;-1.644;2022-09-01T20:58:25;21.30;79.20
12622;DHT22;6376;48.182;-1.644;2022-09-01T21:04:02;21.40;79.40
12622;DHT22;6376;48.182;-1.644;2022-09-01T21:09:21;21.30;79.40
12622;DHT22;6376;48.182;-1.644;2022-09-01T21:20:59;21.30;79.40
12622;DHT22;6376;48.182;-1.644;2022-09-01T21:23:29;21.30;79.50
12622;DHT22;6376;48.182;-1.644;2022-09-01T21:25:57;21.30;79.50
12622;DHT22;6376;48.182;-1.644;2022-09-01T21:28:23;21.30;79.50
12622;DHT22;6376;48.182;-1.644;2022-09-01T21:30:52;21.30;79.50
12622;DHT22;6376;48.182;-1.644;2022-09-01T21:33:26;21.30;79.50
12622;DHT22;6376;48.182;-1.644;2022-09-01T21:35:52;21.30;79.40
12622;DHT22;6376;48.182;-1.644;2022-09-01T21:38:18;21.30;79.40
12622;DHT22;6376;48.182;-1.644;2022-09-01T21:40:44;21.30;79.50
12622;DHT22;6376;48.182;-1.644;2022-09-01T21:43:17;21.30;79.40
12622;DHT22;6376;48.182;-1.644;2022-09-01T21:45:44;21.30;79.40
12622;DHT22;6376;48.182;-1.644;2022-09-01T21:48:10;21.30;79.40
12622;DHT22;6376;48.182;-1.644;2022-09-01T21:50:36;21.20;79.30
12622;DHT22;6376;48.182;-1.644;2022-09-01T21:53:02;21.20;79.40
12622;DHT22;6376;48.182;-1.644;2022-09-01T21:55:28;21.20;79.50
12622;DHT22;6376;48.182;-1.644;2022-09-01T21:57:54;21.20;79.50
12622;DHT22;6376;48.182;-1.644;2022-09-01T22:00:25;21.20;79.60
12622;DHT22;6376;48.182;-1.644;2022-09-01T22:02:53;21.20;79.60
12622;DHT22;6376;48.182;-1.644;2022-09-01T22:05:19;21.20;80.40
12622;DHT22;6376;48.182;-1.644;2022-09-01T22:07:46;21.20;79.70
12622;DHT22;6376;48.182;-1.644;2022-09-01T22:10:15;21.20;79.60
12622;DHT22;6376;48.182;-1.644;2022-09-01T22:12:43;21.20;79.70
12622;DHT22;6376;48.182;-1.644;2022-09-01T22:15:11;21.20;79.60
12622;DHT22;6376;48.182;-1.644;2022-09-01T22:17:37;21.20;79.60
12622;DHT22;6376;48.182;-1.644;2022-09-01T22:20:05;21.20;79.60
12622;DHT22;6376;48.182;-1.644;2022-09-01T22:22:32;21.20;79.70
12622;DHT22;6376;48.182;-1.644;2022-09-01T22:24:58;21.20;79.60
12622;DHT22;6376;48.182;-1.644;2022-09-01T22:27:24;21.20;79.60
12622;DHT22;6376;48.182;-1.644;2022-09-01T22:29:50;21.20;79.60
12622;DHT22;6376;48.182;-1.644;2022-09-01T22:32:17;21.20;79.60
12622;DHT22;6376;48.182;-1.644;2022-09-01T22:34:43;21.20;79.70
12622;DHT22;6376;48.182;-1.644;2022-09-01T22:37:08;21.10;79.60
12622;DHT22;6376;48.182;-1.644;2022-09-01T22:39:34;21.10;79.60
12622;DHT22;6376;48.182;-1.644;2022-09-01T22:42:00;21.10;79.60
12622;DHT22;6376;48.182;-1.644;2022-09-01T22:44:26;21.10;79.60
12622;DHT22;6376;48.182;-1.644;2022-09-01T22:46:51;21.10;79.60
12622;DHT22;6376;48.182;-1.644;2022-09-01T22:49:17;21.10;79.60
12622;DHT22;6376;48.182;-1.644;2022-09-01T22:51:43;21.10;79.60
12622;DHT22;6376;48.182;-1.644;2022-09-01T22:54:09;21.10;79.60
12622;DHT22;6376;48.182;-1.644;2022-09-01T22:56:36;21.10;79.60
12622;DHT22;6376;48.182;-1.644;2022-09-01T22:59:06;21.10;79.60
12622;DHT22;6376;48.182;-1.644;2022-09-01T23:01:36;21.10;79.60
12622;DHT22;6376;48.182;-1.644;2022-09-01T23:04:05;21.10;79.60
12622;DHT22;6376;48.182;-1.644;2022-09-01T23:06:37;21.10;79.60
12622;DHT22;6376;48.182;-1.644;2022-09-01T23:09:03;21.10;79.60
12622;DHT22;6376;48.182;-1.644;2022-09-01T23:11:29;21.10;79.60
12622;DHT22;6376;48.182;-1.644;2022-09-01T23:13:54;21.10;79.60
12622;DHT22;6376;48.182;-1.644;2022-09-01T23:16:21;21.10;79.60
12622;DHT22;6376;48.182;-1.644;2022-09-01T23:18:48;21.10;79.60
12622;DHT22;6376;48.182;-1.644;2022-09-01T23:21:18;21.10;79.60
12622;DHT22;6376;48.182;-1.644;2022-09-01T23:23:44;21.10;79.60
12622;DHT22;6376;48.182;-1.644;2022-09-01T23:26:11;21.10;79.60
12622;DHT22;6376;48.182;-1.644;2022-09-01T23:28:38;21.10;79.60
12622;DHT22;6376;48.182;-1.644;2022-09-01T23:31:10;21.10;80.30
12622;DHT22;6376;48.182;-1.644;2022-09-01T23:33:36;21.10;79.60
12622;DHT22;6376;48.182;-1.644;2022-09-01T23:36:05;21.10;79.60
12622;DHT22;6376;48.182;-1.644;2022-09-01T23:38:31;21.00;79.60
12622;DHT22;6376;48.182;-1.644;2022-09-01T23:40:57;21.00;79.60
12622;DHT22;6376;48.182;-1.644;2022-09-01T23:43:24;21.00;79.60
12622;DHT22;6376;48.182;-1.644;2022-09-01T23:45:53;21.00;79.70
12622;DHT22;6376;48.182;-1.644;2022-09-01T23:48:21;21.00;79.70
12622;DHT22;6376;48.182;-1.644;2022-09-01T23:53:16;21.00;79.70
12622;DHT22;6376;48.182;-1.644;2022-09-01T23:55:47;21.00;79.70
12622;DHT22;6376;48.182;-1.644;2022-09-01T23:58:14;21.00;79.70
